sensor_id;sensor_type;location;lat;lon;timestamp;pressure;altitude;pressure_sealevel;temperature;humidity
58622;BME280;44389;51.578;5.456;2023-02-22T00:00:51;101447.75;;;4.47;100.00
58622;BME280;44389;51.578;5.456;2023-02-22T00:03:18;101451.56;;;4.40;100.00
58622;BME280;44389;51.578;5.456;2023-02-22T00:05:50;101452.25;;;4.38;100.00
58622;BME280;44389;51.578;5.456;2023-02-22T00:08:19;101454.41;;;4.32;100.00
58622;BME280;44389;51.578;5.456;2023-02-22T00:10:45;101457.66;;;4.29;100.00
58622;BME280;44389;51.578;5.456;2023-02-22T00:13:11;101454.19;;;4.28;100.00
58622;BME280;44389;51.578;5.456;2023-02-22T00:15:37;101455.97;;;4.29;100.00
58622;BME280;44389;51.578;5.456;2023-02-22T00:18:06;101454.19;;;4.28;100.00
58622;BME280;44389;51.578;5.456;2023-02-22T00:20:34;101460.88;;;4.26;100.00
58622;BME280;44389;51.578;5.456;2023-02-22T00:23:03;101453.91;;;4.24;100.00
58622;BME280;44389;51.578;5.456;2023-02-22T00:25:31;101445.34;;;4.23;100.00
58622;BME280;44389;51.578;5.456;2023-02-22T00:27:57;101446.94;;;4.21;100.00
58622;BME280;44389;51.578;5.456;2023-02-22T00:30:25;101447.53;;;4.17;100.00
58622;BME280;44389;51.578;5.456;2023-02-22T00:32:51;101448.22;;;4.15;100.00
58622;BME280;44389;51.578;5.456;2023-02-22T00:35:19;101451.56;;;4.14;100.00
58622;BME280;44389;51.578;5.456;2023-02-22T00:37:49;101447.22;;;4.12;100.00
58622;BME280;44389;51.578;5.456;2023-02-22T00:40:18;101441.34;;;4.14;100.00
58622;BME280;44389;51.578;5.456;2023-02-22T00:42:44;101432.00;;;4.14;100.00
58622;BME280;44389;51.578;5.456;2023-02-22T00:45:11;101434.38;;;4.11;100.00
58622;BME280;44389;51.578;5.456;2023-02-22T00:47:36;101433.59;;;4.12;100.00
58622;BME280;44389;51.578;5.456;2023-02-22T00:50:02;101429.38;;;4.12;100.00
58622;BME280;44389;51.578;5.456;2023-02-22T00:52:27;101432.78;;;4.13;100.00
58622;BME280;44389;51.578;5.456;2023-02-22T00:54:55;101432.69;;;4.11;100.00
58622;BME280;44389;51.578;5.456;2023-02-22T00:57:22;101426.50;;;4.08;100.00
58622;BME280;44389;51.578;5.456;2023-02-22T00:59:48;101432.50;;;4.08;100.00
58622;BME280;44389;51.578;5.456;2023-02-22T01:02:13;101433.19;;;4.06;100.00
58622;BME280;44389;51.578;5.456;2023-02-22T01:04:38;101425.53;;;4.06;100.00
58622;BME280;44389;51.578;5.456;2023-02-22T01:07:04;101426.13;;;4.02;100.00
58622;BME280;44389;51.578;5.456;2023-02-22T01:09:29;101426.00;;;4.00;100.00
58622;BME280;44389;51.578;5.456;2023-02-22T01:11:55;101416.59;;;3.99;100.00
58622;BME280;44389;51.578;5.456;2023-02-22T01:14:22;101424.13;;;3.98;100.00
58622;BME280;44389;51.578;5.456;2023-02-22T01:16:51;101416.38;;;3.96;100.00
58622;BME280;44389;51.578;5.456;2023-02-22T01:19:16;101410.19;;;3.92;100.00
58622;BME280;44389;51.578;5.456;2023-02-22T01:21:42;101406.78;;;3.92;100.00
58622;BME280;44389;51.578;5.456;2023-02-22T01:24:07;101407.16;;;3.85;100.00
58622;BME280;44389;51.578;5.456;2023-02-22T01:26:33;101401.94;;;3.83;100.00
58622;BME280;44389;51.578;5.456;2023-02-22T01:28:59;101403.41;;;3.79;100.00
58622;BME280;44389;51.578;5.456;2023-02-22T01:31:24;101404.09;;;3.77;100.00
58622;BME280;44389;51.578;5.456;2023-02-22T01:33:49;101403.03;;;3.73;100.00
58622;BME280;44389;51.578;5.456;2023-02-22T01:36:15;101402.13;;;3.73;100.00
58622;BME280;44389;51.578;5.456;2023-02-22T01:38:41;101401.03;;;3.69;100.00
58622;BME280;44389;51.578;5.456;2023-02-22T01:41:07;101394.88;;;3.66;100.00
58622;BME280;44389;51.578;5.456;2023-02-22T01:43:32;101396.63;;;3.67;100.00
58622;BME280;44389;51.578;5.456;2023-02-22T01:49:02;101390.66;;;3.66;100.00
58622;BME280;44389;51.578;5.456;2023-02-22T01:51:36;101386.22;;;3.63;100.00
58622;BME280;44389;51.578;5.456;2023-02-22T01:54:09;101386.91;;;3.61;100.00
58622;BME280;44389;51.578;5.456;2023-02-22T01:56:38;101385.34;;;3.63;100.00
58622;BME280;44389;51.578;5.456;2023-02-22T01:59:08;101387.09;;;3.64;100.00
58622;BME280;44389;51.578;5.456;2023-02-22T02:01:36;101379.59;;;3.66;100.00
58622;BME280;44389;51.578;5.456;2023-02-22T02:04:05;101383.09;;;3.68;100.00
58622;BME280;44389;51.578;5.456;2023-02-22T02:06:32;101373.81;;;3.68;100.00
58622;BME280;44389;51.578;5.456;2023-02-22T02:11:58;101370.56;;;3.71;100.00
58622;BME280;44389;51.578;5.456;2023-02-22T02:14:25;101361.84;;;3.67;100.00
58622;BME280;44389;51.578;5.456;2023-02-22T02:16:52;101358.50;;;3.68;100.00
58622;BME280;44389;51.578;5.456;2023-02-22T02:22:43;101351.72;;;3.69;100.00
58622;BME280;44389;51.578;5.456;2023-02-22T02:33:18;101339.75;;;3.68;100.00
58622;BME280;44389;51.578;5.456;2023-02-22T02:36:02;101333.69;;;3.66;100.00
58622;BME280;44389;51.578;5.456;2023-02-22T02:38:45;101331.94;;;3.65;100.00
58622;BME280;44389;51.578;5.456;2023-02-22T02:41:38;101333.47;;;3.62;100.00
58622;BME280;44389;51.578;5.456;2023-02-22T02:49:28;101327.00;;;3.68;100.00
58622;BME280;44389;51.578;5.456;2023-02-22T02:51:56;101328.59;;;3.66;100.00
58622;BME280;44389;51.578;5.456;2023-02-22T02:54:23;101327.69;;;3.65;100.00
58622;BME280;44389;51.578;5.456;2023-02-22T02:56:49;101328.59;;;3.66;100.00
58622;BME280;44389;51.578;5.456;2023-02-22T02:59:35;101328.09;;;3.71;100.00
58622;BME280;44389;51.578;5.456;2023-02-22T03:05:00;101328.78;;;3.69;100.00
58622;BME280;44389;51.578;5.456;2023-02-22T03:13:07;101313.81;;;3.73;100.00
58622;BME280;44389;51.578;5.456;2023-02-22T03:18:49;101312.81;;;3.71;100.00
58622;BME280;44389;51.578;5.456;2023-02-22T03:21:31;101303.19;;;3.67;100.00
58622;BME280;44389;51.578;5.456;2023-02-22T03:24:21;101302.88;;;3.62;100.00
58622;BME280;44389;51.578;5.456;2023-02-22T03:26:53;101291.81;;;3.62;100.00
58622;BME280;44389;51.578;5.456;2023-02-22T03:29:23;101298.47;;;3.60;100.00
58622;BME280;44389;51.578;5.456;2023-02-22T03:31:57;101295.66;;;3.55;100.00
58622;BME280;44389;51.578;5.456;2023-02-22T03:34:29;101295.44;;;3.52;100.00
58622;BME280;44389;51.578;5.456;2023-02-22T03:37:04;101291.91;;;3.50;100.00
58622;BME280;44389;51.578;5.456;2023-02-22T03:39:34;101285.91;;;3.50;100.00
58622;BME280;44389;51.578;5.456;2023-02-22T03:42:07;101279.34;;;3.53;100.00
58622;BME280;44389;51.578;5.456;2023-02-22T03:44:34;101273.47;;;3.54;100.00
58622;BME280;44389;51.578;5.456;2023-02-22T03:47:05;101271.81;;;3.55;100.00
58622;BME280;44389;51.578;5.456;2023-02-22T03:49:35;101270.25;;;3.57;100.00
58622;BME280;44389;51.578;5.456;2023-02-22T03:52:03;101267.69;;;3.57;100.00
58622;BME280;44389;51.578;5.456;2023-02-22T03:54:29;101264.47;;;3.59;100.00
58622;BME280;44389;51.578;5.456;2023-02-22T03:56:58;101263.28;;;3.54;100.00
58622;BME280;44389;51.578;5.456;2023-02-22T03:59:25;101260.75;;;3.54;100.00
58622;BME280;44389;51.578;5.456;2023-02-22T04:01:54;101251.13;;;3.50;100.00
58622;BME280;44389;51.578;5.456;2023-02-22T04:04:21;101248.78;;;3.53;100.00
58622;BME280;44389;51.578;5.456;2023-02-22T04:06:47;101246.03;;;3.50;100.00
58622;BME280;44389;51.578;5.456;2023-02-22T04:09:14;101250.91;;;3.47;100.00
58622;BME280;44389;51.578;5.456;2023-02-22T04:11:39;101249.88;;;3.43;100.00
58622;BME280;44389;51.578;5.456;2023-02-22T04:14:04;101247.78;;;3.38;100.00
58622;BME280;44389;51.578;5.456;2023-02-22T04:16:30;101242.59;;;3.36;100.00
58622;BME280;44389;51.578;5.456;2023-02-22T04:18:55;101239.84;;;3.33;100.00
58622;BME280;44389;51.578;5.456;2023-02-22T04:21:20;101239.63;;;3.30;100.00
58622;BME280;44389;51.578;5.456;2023-02-22T04:23:46;101228.59;;;3.29;100.00
58622;BME280;44389;51.578;5.456;2023-02-22T04:26:11;101221.72;;;3.28;100.00
58622;BME280;44389;51.578;5.456;2023-02-22T04:28:36;101218.16;;;3.26;100.00
58622;BME280;44389;51.578;5.456;2023-02-22T04:31:02;101216.53;;;3.27;100.00
58622;BME280;44389;51.578;5.456;2023-02-22T04:33:27;101213.28;;;3.29;100.00
58622;BME280;44389;51.578;5.456;2023-02-22T04:35:52;101220.03;;;3.29;100.00
58622;BME280;44389;51.578;5.456;2023-02-22T04:38:18;101223.56;;;3.31;100.00
58622;BME280;44389;51.578;5.456;2023-02-22T04:40:43;101215.84;;;3.29;100.00
58622;BME280;44389;51.578;5.456;2023-02-22T04:43:09;101209.84;;;3.29;100.00
58622;BME280;44389;51.578;5.456;2023-02-22T04:45:34;101219.16;;;3.28;100.00
58622;BME280;44389;51.578;5.456;2023-02-22T04:48:00;101214.94;;;3.29;100.00
58622;BME280;44389;51.578;5.456;2023-02-22T04:50:25;101214.94;;;3.29;100.00
58622;BME280;44389;51.578;5.456;2023-02-22T04:52:50;101213.66;;;3.22;100.00
58622;BME280;44389;51.578;5.456;2023-02-22T04:55:16;101216.91;;;3.20;100.00
58622;BME280;44389;51.578;5.456;2023-02-22T04:57:41;101218.47;;;3.18;100.00
58622;BME280;44389;51.578;5.456;2023-02-22T05:00:07;101230.13;;;3.14;100.00
58622;BME280;44389;51.578;5.456;2023-02-22T05:02:36;101216.63;;;3.15;100.00
58622;BME280;44389;51.578;5.456;2023-02-22T05:05:03;101221.13;;;3.19;100.00
58622;BME280;44389;51.578;5.456;2023-02-22T05:07:28;101210.84;;;3.18;100.00
58622;BME280;44389;51.578;5.456;2023-02-22T05:09:54;101211.72;;;3.18;100.00
58622;BME280;44389;51.578;5.456;2023-02-22T05:12:19;101208.16;;;3.16;100.00
58622;BME280;44389;51.578;5.456;2023-02-22T05:14:45;101210.53;;;3.13;100.00
58622;BME280;44389;51.578;5.456;2023-02-22T05:17:11;101206.44;;;3.15;100.00
58622;BME280;44389;51.578;5.456;2023-02-22T05:19:36;101192.69;;;3.13;100.00
58622;BME280;44389;51.578;5.456;2023-02-22T05:22:02;101198.56;;;3.12;100.00
58622;BME280;44389;51.578;5.456;2023-02-22T05:24:27;101197.09;;;3.16;100.00
58622;BME280;44389;51.578;5.456;2023-02-22T05:26:53;101201.34;;;3.15;100.00
58622;BME280;44389;51.578;5.456;2023-02-22T05:29:18;101186.91;;;3.16;100.00
58622;BME280;44389;51.578;5.456;2023-02-22T05:31:44;101189.47;;;3.16;100.00
58622;BME280;44389;51.578;5.456;2023-02-22T05:34:10;101184.47;;;3.17;100.00
58622;BME280;44389;51.578;5.456;2023-02-22T05:36:35;101182.69;;;3.16;100.00
58622;BME280;44389;51.578;5.456;2023-02-22T05:39:00;101180.28;;;3.18;100.00
58622;BME280;44389;51.578;5.456;2023-02-22T05:41:27;101171.63;;;3.16;100.00
58622;BME280;44389;51.578;5.456;2023-02-22T05:43:52;101168.31;;;3.17;100.00
58622;BME280;44389;51.578;5.456;2023-02-22T05:46:17;101153.81;;;3.16;100.00
58622;BME280;44389;51.578;5.456;2023-02-22T05:48:43;101165.88;;;3.18;100.00
58622;BME280;44389;51.578;5.456;2023-02-22T05:51:08;101158.31;;;3.20;100.00
58622;BME280;44389;51.578;5.456;2023-02-22T05:53:35;101164.31;;;3.20;100.00
58622;BME280;44389;51.578;5.456;2023-02-22T05:56:00;101157.44;;;3.19;100.00
58622;BME280;44389;51.578;5.456;2023-02-22T05:58:26;101156.53;;;3.19;100.00
58622;BME280;44389;51.578;5.456;2023-02-22T06:00:51;101143.94;;;3.20;100.00
58622;BME280;44389;51.578;5.456;2023-02-22T06:03:17;101145.66;;;3.21;100.00
58622;BME280;44389;51.578;5.456;2023-02-22T06:05:42;101145.88;;;3.24;100.00
58622;BME280;44389;51.578;5.456;2023-02-22T06:08:08;101145.19;;;3.27;100.00
58622;BME280;44389;51.578;5.456;2023-02-22T06:10:33;101142.84;;;3.30;100.00
58622;BME280;44389;51.578;5.456;2023-02-22T06:13:00;101139.41;;;3.29;100.00
58622;BME280;44389;51.578;5.456;2023-02-22T06:15:27;101126.00;;;3.32;100.00
58622;BME280;44389;51.578;5.456;2023-02-22T06:17:54;101123.53;;;3.34;100.00
58622;BME280;44389;51.578;5.456;2023-02-22T06:20:21;101125.22;;;3.33;100.00
58622;BME280;44389;51.578;5.456;2023-02-22T06:22:48;101115.91;;;3.34;100.00
58622;BME280;44389;51.578;5.456;2023-02-22T06:25:17;101114.13;;;3.33;100.00
58622;BME280;44389;51.578;5.456;2023-02-22T06:27:42;101114.34;;;3.36;100.00
58622;BME280;44389;51.578;5.456;2023-02-22T06:30:10;101114.34;;;3.36;100.00
58622;BME280;44389;51.578;5.456;2023-02-22T06:32:36;101110.88;;;3.35;100.00
58622;BME280;44389;51.578;5.456;2023-02-22T06:35:01;101104.31;;;3.39;100.00
58622;BME280;44389;51.578;5.456;2023-02-22T06:37:26;101106.97;;;3.40;100.00
58622;BME280;44389;51.578;5.456;2023-02-22T06:39:52;101103.63;;;3.41;100.00
58622;BME280;44389;51.578;5.456;2023-02-22T06:42:17;101103.63;;;3.41;100.00
58622;BME280;44389;51.578;5.456;2023-02-22T06:44:42;101112.28;;;3.43;100.00
58622;BME280;44389;51.578;5.456;2023-02-22T06:47:08;101106.28;;;3.43;100.00
58622;BME280;44389;51.578;5.456;2023-02-22T06:49:34;101109.03;;;3.46;100.00
58622;BME280;44389;51.578;5.456;2023-02-22T06:51:59;101109.81;;;3.45;100.00
58622;BME280;44389;51.578;5.456;2023-02-22T06:54:24;101108.13;;;3.45;100.00
58622;BME280;44389;51.578;5.456;2023-02-22T06:56:51;101107.25;;;3.45;100.00
58622;BME280;44389;51.578;5.456;2023-02-22T06:59:16;101115.09;;;3.48;100.00
58622;BME280;44389;51.578;5.456;2023-02-22T07:01:42;101116.06;;;3.50;100.00
58622;BME280;44389;51.578;5.456;2023-02-22T07:04:07;101116.16;;;3.52;100.00
58622;BME280;44389;51.578;5.456;2023-02-22T07:06:33;101120.47;;;3.53;100.00
58622;BME280;44389;51.578;5.456;2023-02-22T07:08:58;101123.91;;;3.53;100.00
58622;BME280;44389;51.578;5.456;2023-02-22T07:11:23;101129.88;;;3.54;100.00
58622;BME280;44389;51.578;5.456;2023-02-22T07:13:49;101122.34;;;3.55;100.00
58622;BME280;44389;51.578;5.456;2023-02-22T07:16:14;101124.00;;;3.55;100.00
58622;BME280;44389;51.578;5.456;2023-02-22T07:18:39;101124.97;;;3.57;100.00
58622;BME280;44389;51.578;5.456;2023-02-22T07:21:05;101127.63;;;3.58;100.00
58622;BME280;44389;51.578;5.456;2023-02-22T07:23:31;101134.47;;;3.59;100.00
58622;BME280;44389;51.578;5.456;2023-02-22T07:25:59;101139.06;;;3.65;100.00
58622;BME280;44389;51.578;5.456;2023-02-22T07:28:24;101133.66;;;3.74;100.00
58622;BME280;44389;51.578;5.456;2023-02-22T07:30:50;101128.09;;;3.66;100.00
58622;BME280;44389;51.578;5.456;2023-02-22T07:33:15;101123.69;;;3.63;100.00
58622;BME280;44389;51.578;5.456;2023-02-22T07:35:48;101130.81;;;3.69;100.00
58622;BME280;44389;51.578;5.456;2023-02-22T07:38:16;101137.69;;;3.70;100.00
58622;BME280;44389;51.578;5.456;2023-02-22T07:40:42;101133.75;;;3.75;100.00
58622;BME280;44389;51.578;5.456;2023-02-22T07:43:17;101139.63;;;3.74;100.00
58622;BME280;44389;51.578;5.456;2023-02-22T07:45:43;101142.31;;;3.76;100.00
58622;BME280;44389;51.578;5.456;2023-02-22T07:48:09;101151.81;;;3.78;100.00
58622;BME280;44389;51.578;5.456;2023-02-22T07:50:36;101152.84;;;3.82;100.00
58622;BME280;44389;51.578;5.456;2023-02-22T07:53:05;101156.22;;;3.81;100.00
58622;BME280;44389;51.578;5.456;2023-02-22T07:55:32;101143.56;;;3.83;100.00
58622;BME280;44389;51.578;5.456;2023-02-22T07:58:00;101147.66;;;3.81;100.00
58622;BME280;44389;51.578;5.456;2023-02-22T08:00:38;101153.94;;;3.86;100.00
58622;BME280;44389;51.578;5.456;2023-02-22T08:03:09;101156.97;;;3.93;100.00
58622;BME280;44389;51.578;5.456;2023-02-22T08:05:36;101152.06;;;3.97;100.00
58622;BME280;44389;51.578;5.456;2023-02-22T08:08:03;101157.16;;;3.97;100.00
58622;BME280;44389;51.578;5.456;2023-02-22T08:10:30;101155.78;;;4.02;100.00
58622;BME280;44389;51.578;5.456;2023-02-22T08:12:55;101156.03;;;4.06;100.00
58622;BME280;44389;51.578;5.456;2023-02-22T08:17:53;101146.63;;;4.05;100.00
58622;BME280;44389;51.578;5.456;2023-02-22T08:20:18;101139.94;;;4.07;100.00
58622;BME280;44389;51.578;5.456;2023-02-22T08:22:44;101138.09;;;4.05;100.00
58622;BME280;44389;51.578;5.456;2023-02-22T08:25:12;101135.91;;;4.11;100.00
58622;BME280;44389;51.578;5.456;2023-02-22T08:27:40;101125.81;;;4.12;100.00
58622;BME280;44389;51.578;5.456;2023-02-22T08:30:05;101125.03;;;4.14;100.00
58622;BME280;44389;51.578;5.456;2023-02-22T08:32:32;101121.16;;;4.20;100.00
58622;BME280;44389;51.578;5.456;2023-02-22T08:34:57;101124.00;;;4.25;100.00
58622;BME280;44389;51.578;5.456;2023-02-22T08:37:22;101119.44;;;4.34;100.00
58622;BME280;44389;51.578;5.456;2023-02-22T08:39:47;101129.13;;;4.40;100.00
58622;BME280;44389;51.578;5.456;2023-02-22T08:42:13;101132.91;;;4.47;100.00
58622;BME280;44389;51.578;5.456;2023-02-22T08:44:39;101141.22;;;4.57;100.00
58622;BME280;44389;51.578;5.456;2023-02-22T08:47:05;101138.19;;;4.65;100.00
58622;BME280;44389;51.578;5.456;2023-02-22T08:49:31;101134.00;;;4.65;100.00
58622;BME280;44389;51.578;5.456;2023-02-22T08:51:57;101136.81;;;4.70;100.00
58622;BME280;44389;51.578;5.456;2023-02-22T08:54:22;101134.59;;;4.76;100.00
58622;BME280;44389;51.578;5.456;2023-02-22T08:56:48;101138.59;;;4.86;100.00
58622;BME280;44389;51.578;5.456;2023-02-22T08:59:14;101126.34;;;4.95;100.00
58622;BME280;44389;51.578;5.456;2023-02-22T09:01:40;101117.75;;;5.09;100.00
58622;BME280;44389;51.578;5.456;2023-02-22T09:04:05;101124.63;;;5.25;100.00
58622;BME280;44389;51.578;5.456;2023-02-22T09:06:31;101127.44;;;5.30;100.00
58622;BME280;44389;51.578;5.456;2023-02-22T09:08:56;101129.63;;;5.39;100.00
58622;BME280;44389;51.578;5.456;2023-02-22T09:11:22;101113.38;;;5.38;100.00
58622;BME280;44389;51.578;5.456;2023-02-22T09:13:47;101114.78;;;5.48;100.00
58622;BME280;44389;51.578;5.456;2023-02-22T09:16:12;101107.91;;;5.47;100.00
58622;BME280;44389;51.578;5.456;2023-02-22T09:18:38;101107.78;;;5.60;100.00
58622;BME280;44389;51.578;5.456;2023-02-22T09:21:04;101097.59;;;5.46;100.00
58622;BME280;44389;51.578;5.456;2023-02-22T09:23:29;101098.38;;;5.44;100.00
58622;BME280;44389;51.578;5.456;2023-02-22T09:25:54;101099.44;;;5.48;100.00
58622;BME280;44389;51.578;5.456;2023-02-22T09:28:20;101095.13;;;5.47;100.00
58622;BME280;44389;51.578;5.456;2023-02-22T09:30:46;101094.31;;;5.48;100.00
58622;BME280;44389;51.578;5.456;2023-02-22T09:33:16;101099.59;;;5.51;100.00
58622;BME280;44389;51.578;5.456;2023-02-22T09:35:43;101092.94;;;5.70;100.00
58622;BME280;44389;51.578;5.456;2023-02-22T09:38:19;101093.03;;;5.88;100.00
58622;BME280;44389;51.578;5.456;2023-02-22T09:40:49;101099.00;;;5.88;100.00
58622;BME280;44389;51.578;5.456;2023-02-22T09:46:31;101085.66;;;6.27;100.00
58622;BME280;44389;51.578;5.456;2023-02-22T09:51:46;101087.03;;;6.37;100.00
58622;BME280;44389;51.578;5.456;2023-02-22T09:54:37;101084.44;;;6.53;100.00
58622;BME280;44389;51.578;5.456;2023-02-22T09:57:06;101083.19;;;6.63;100.00
58622;BME280;44389;51.578;5.456;2023-02-22T09:59:38;101082.78;;;6.72;100.00
58622;BME280;44389;51.578;5.456;2023-02-22T10:02:25;101089.81;;;6.94;100.00
58622;BME280;44389;51.578;5.456;2023-02-22T10:05:02;101089.16;;;7.16;100.00
58622;BME280;44389;51.578;5.456;2023-02-22T10:07:46;101080.63;;;7.35;100.00
58622;BME280;44389;51.578;5.456;2023-02-22T10:10:17;101080.06;;;7.23;100.00
58622;BME280;44389;51.578;5.456;2023-02-22T10:23:25;101072.38;;;8.19;100.00
58622;BME280;44389;51.578;5.456;2023-02-22T10:25:57;101076.97;;;8.46;100.00
58622;BME280;44389;51.578;5.456;2023-02-22T10:28:35;101080.53;;;8.71;100.00
58622;BME280;44389;51.578;5.456;2023-02-22T10:31:07;101072.75;;;8.90;100.00
58622;BME280;44389;51.578;5.456;2023-02-22T10:33:35;101064.50;;;8.98;100.00
58622;BME280;44389;51.578;5.456;2023-02-22T10:36:02;101069.81;;;9.25;99.60
58622;BME280;44389;51.578;5.456;2023-02-22T10:38:29;101072.34;;;9.23;98.08
58622;BME280;44389;51.578;5.456;2023-02-22T10:41:19;101069.81;;;9.25;99.06
58622;BME280;44389;51.578;5.456;2023-02-22T10:43:45;101067.06;;;9.20;98.01
58622;BME280;44389;51.578;5.456;2023-02-22T10:46:13;101071.34;;;9.20;97.17
58622;BME280;44389;51.578;5.456;2023-02-22T10:48:41;101076.69;;;9.25;96.43
58622;BME280;44389;51.578;5.456;2023-02-22T10:51:08;101070.22;;;9.36;96.98
58622;BME280;44389;51.578;5.456;2023-02-22T10:53:35;101071.47;;;9.68;96.06
58622;BME280;44389;51.578;5.456;2023-02-22T10:56:07;101068.19;;;9.97;96.50
58622;BME280;44389;51.578;5.456;2023-02-22T10:58:45;101067.19;;;9.93;93.07
58622;BME280;44389;51.578;5.456;2023-02-22T11:03:57;101061.88;;;10.63;89.40
58622;BME280;44389;51.578;5.456;2023-02-22T11:06:22;101063.47;;;10.86;96.76
58622;BME280;44389;51.578;5.456;2023-02-22T11:08:48;101064.56;;;10.67;86.45
58622;BME280;44389;51.578;5.456;2023-02-22T11:11:22;101062.69;;;10.89;91.85
58622;BME280;44389;51.578;5.456;2023-02-22T11:13:56;101067.69;;;10.84;84.30
58622;BME280;44389;51.578;5.456;2023-02-22T11:16:33;101068.19;;;10.73;83.14
58622;BME280;44389;51.578;5.456;2023-02-22T11:19:11;101053.28;;;10.64;84.63
58622;BME280;44389;51.578;5.456;2023-02-22T11:21:41;101051.88;;;10.46;82.84
58622;BME280;44389;51.578;5.456;2023-02-22T11:24:09;101046.63;;;10.43;84.90
58622;BME280;44389;51.578;5.456;2023-02-22T11:26:37;101047.66;;;10.48;84.70
58622;BME280;44389;51.578;5.456;2023-02-22T11:29:12;101050.75;;;10.38;83.30
58622;BME280;44389;51.578;5.456;2023-02-22T11:31:42;101048.31;;;10.18;84.02
58622;BME280;44389;51.578;5.456;2023-02-22T11:34:25;101048.44;;;10.21;85.35
58622;BME280;44389;51.578;5.456;2023-02-22T11:36:51;101041.53;;;10.20;83.98
58622;BME280;44389;51.578;5.456;2023-02-22T11:39:25;101042.06;;;10.36;84.28
58622;BME280;44389;51.578;5.456;2023-02-22T11:41:51;101034.16;;;10.57;83.06
58622;BME280;44389;51.578;5.456;2023-02-22T11:44:24;101029.88;;;10.83;82.45
58622;BME280;44389;51.578;5.456;2023-02-22T11:46:51;101028.66;;;11.01;81.56
58622;BME280;44389;51.578;5.456;2023-02-22T11:49:21;101028.03;;;11.08;81.15
58622;BME280;44389;51.578;5.456;2023-02-22T12:08:48;100994.00;;;10.64;83.82
58622;BME280;44389;51.578;5.456;2023-02-22T12:14:12;101004.53;;;10.44;83.14
58622;BME280;44389;51.578;5.456;2023-02-22T12:17:00;100994.84;;;10.35;85.15
58622;BME280;44389;51.578;5.456;2023-02-22T12:19:34;100992.06;;;10.31;85.19
58622;BME280;44389;51.578;5.456;2023-02-22T12:22:06;100997.91;;;10.25;85.66
58622;BME280;44389;51.578;5.456;2023-02-22T12:24:36;100990.69;;;10.15;86.46
58622;BME280;44389;51.578;5.456;2023-02-22T12:27:14;100980.94;;;10.06;87.11
58622;BME280;44389;51.578;5.456;2023-02-22T12:29:55;100982.31;;;9.96;87.71
58622;BME280;44389;51.578;5.456;2023-02-22T12:32:37;100965.97;;;9.94;88.22
58622;BME280;44389;51.578;5.456;2023-02-22T12:35:26;100970.22;;;9.94;90.08
58622;BME280;44389;51.578;5.456;2023-02-22T12:48:56;100981.69;;;9.53;94.84
58622;BME280;44389;51.578;5.456;2023-02-22T12:54:45;100993.53;;;9.48;95.66
58622;BME280;44389;51.578;5.456;2023-02-22T12:57:24;100994.00;;;9.38;96.06
58622;BME280;44389;51.578;5.456;2023-02-22T12:59:55;101000.66;;;9.33;97.45
58622;BME280;44389;51.578;5.456;2023-02-22T13:02:27;100997.00;;;9.26;98.19
58622;BME280;44389;51.578;5.456;2023-02-22T13:04:54;100995.06;;;9.20;98.82
58622;BME280;44389;51.578;5.456;2023-02-22T13:10:28;100998.34;;;9.16;99.79
58622;BME280;44389;51.578;5.456;2023-02-22T13:18:39;100995.06;;;9.20;100.00
58622;BME280;44389;51.578;5.456;2023-02-22T13:28:49;100991.91;;;9.28;99.03
58622;BME280;44389;51.578;5.456;2023-02-22T13:31:25;100988.69;;;9.33;98.32
58622;BME280;44389;51.578;5.456;2023-02-22T13:34:09;100984.56;;;9.38;98.45
58622;BME280;44389;51.578;5.456;2023-02-22T13:45:25;100983.47;;;9.54;98.24
58622;BME280;44389;51.578;5.456;2023-02-22T13:51:12;100984.44;;;9.58;98.41
58622;BME280;44389;51.578;5.456;2023-02-22T13:56:19;100977.28;;;9.49;97.49
58622;BME280;44389;51.578;5.456;2023-02-22T13:58:51;100984.84;;;9.46;97.71
58622;BME280;44389;51.578;5.456;2023-02-22T14:01:37;100981.41;;;9.46;98.95
58622;BME280;44389;51.578;5.456;2023-02-22T14:06:56;100986.50;;;9.44;98.61
58622;BME280;44389;51.578;5.456;2023-02-22T14:18:01;100992.28;;;9.38;100.00
58622;BME280;44389;51.578;5.456;2023-02-22T14:20:29;100997.28;;;9.34;100.00
58622;BME280;44389;51.578;5.456;2023-02-22T14:25:48;101001.63;;;9.35;100.00
58622;BME280;44389;51.578;5.456;2023-02-22T14:28:41;101003.28;;;9.34;100.00
58622;BME280;44389;51.578;5.456;2023-02-22T14:32:03;100998.91;;;9.32;100.00
58622;BME280;44389;51.578;5.456;2023-02-22T14:34:18;101000.56;;;9.30;100.00
58622;BME280;44389;51.578;5.456;2023-02-22T14:37:35;100998.91;;;9.32;100.00
58622;BME280;44389;51.578;5.456;2023-02-22T14:42:44;101002.59;;;9.38;100.00
58622;BME280;44389;51.578;5.456;2023-02-22T14:45:20;101002.00;;;9.46;100.00
58622;BME280;44389;51.578;5.456;2023-02-22T14:48:00;101005.72;;;9.54;100.00
58622;BME280;44389;51.578;5.456;2023-02-22T14:50:41;101003.31;;;9.59;100.00
58622;BME280;44389;51.578;5.456;2023-02-22T14:53:23;101007.72;;;9.61;100.00
58622;BME280;44389;51.578;5.456;2023-02-22T14:55:59;101006.06;;;9.63;100.00
58622;BME280;44389;51.578;5.456;2023-02-22T14:58:39;101000.97;;;9.65;100.00
58622;BME280;44389;51.578;5.456;2023-02-22T15:01:38;101000.94;;;9.63;100.00
58622;BME280;44389;51.578;5.456;2023-02-22T15:04:26;101005.81;;;9.55;100.00
58622;BME280;44389;51.578;5.456;2023-02-22T15:06:53;101010.81;;;9.52;100.00
58622;BME280;44389;51.578;5.456;2023-02-22T15:09:23;101014.59;;;9.62;100.00
58622;BME280;44389;51.578;5.456;2023-02-22T15:11:52;101019.53;;;9.56;100.00
58622;BME280;44389;51.578;5.456;2023-02-22T15:14:21;101022.47;;;9.67;100.00
58622;BME280;44389;51.578;5.456;2023-02-22T15:16:58;101023.16;;;9.61;100.00
58622;BME280;44389;51.578;5.456;2023-02-22T15:19:30;101017.00;;;9.58;100.00